createdAt,value
2022-10-22T00:09:09.222Z,100.00
2022-10-22T00:19:13.314Z,100.00
2022-10-22T00:29:18.601Z,100.00
2022-10-22T00:39:23.195Z,100.00
2022-10-22T00:49:25.653Z,100.00
2022-10-22T00:59:29.536Z,100.00
2022-10-22T01:09:37.557Z,98.50
2022-10-22T01:19:46.860Z,99.32
2022-10-22T01:29:52.594Z,100.00
2022-10-22T01:39:55.272Z,100.00
2022-10-22T01:50:19.319Z,100.00
2022-10-22T02:00:22.170Z,100.00
2022-10-22T02:10:26.177Z,100.00
2022-10-22T02:20:29.221Z,100.00
2022-10-22T02:30:33.888Z,100.00
2022-10-22T02:40:36.482Z,100.00
2022-10-22T02:50:40.229Z,100.00
2022-10-22T03:00:42.670Z,100.00
2022-10-22T03:10:46.518Z,100.00
2022-10-22T03:20:48.937Z,100.00
2022-10-22T03:30:52.692Z,100.00
2022-10-22T03:40:55.413Z,100.00
2022-10-22T03:50:59.334Z,100.00
2022-10-22T04:01:05.580Z,100.00
2022-10-22T04:11:09.534Z,100.00
2022-10-22T04:21:13.122Z,98.68
2022-10-22T04:31:17.775Z,97.36
2022-10-22T04:41:21.067Z,96.65
2022-10-22T04:51:26.320Z,96.90
2022-10-22T05:01:29.886Z,97.04
2022-10-22T05:11:34.760Z,96.81
2022-10-22T05:21:38.480Z,96.55
2022-10-22T05:31:42.198Z,96.47
2022-10-22T05:41:44.629Z,98.65
2022-10-22T05:51:48.399Z,100.00
2022-10-22T06:01:50.964Z,99.12
2022-10-22T06:11:55.728Z,97.28
2022-10-22T06:21:58.120Z,96.91
2022-10-22T06:32:01.824Z,96.49
2022-10-22T06:42:04.239Z,96.25
2022-10-22T06:52:08.008Z,95.39
2022-10-22T07:02:10.537Z,93.86
2022-10-22T07:12:14.499Z,92.48
2022-10-22T07:22:17.024Z,92.64
2022-10-22T07:32:23.825Z,92.77
2022-10-22T07:42:26.480Z,92.43
2022-10-22T07:52:30.292Z,92.84
2022-10-22T08:02:32.704Z,91.73
2022-10-22T08:12:36.530Z,92.81
2022-10-22T08:22:38.944Z,93.36
2022-10-22T08:32:42.689Z,94.83
2022-10-22T08:43:06.464Z,96.35
2022-10-22T08:53:15.779Z,97.21
2022-10-22T09:03:28.316Z,97.27
2022-10-22T09:13:32.147Z,95.84
2022-10-22T09:23:39.109Z,95.59
2022-10-22T09:33:44.450Z,92.35
2022-10-22T09:43:47.660Z,91.68
2022-10-22T09:53:57.375Z,90.48
2022-10-22T10:04:09.187Z,85.84
2022-10-22T10:14:16.108Z,82.56
2022-10-22T10:24:24.734Z,83.45
2022-10-22T10:34:36.812Z,80.24
2022-10-22T10:44:51.672Z,79.35
2022-10-22T10:55:05.048Z,79.04
2022-10-22T11:05:22.207Z,79.98
2022-10-22T11:15:28.440Z,79.84
2022-10-22T11:25:32.778Z,78.31
2022-10-22T11:35:39.003Z,75.77
2022-10-22T11:45:42.156Z,70.05
2022-10-22T11:55:48.251Z,67.47
2022-10-22T12:06:03.426Z,61.13
2022-10-22T12:16:10.480Z,57.99
2022-10-22T12:26:25.448Z,53.78
2022-10-22T12:36:29.821Z,49.76
2022-10-22T12:46:33.727Z,50.78
2022-10-22T12:56:38.605Z,47.13
2022-10-22T13:06:44.947Z,48.11
2022-10-22T13:17:02.300Z,45.48
2022-10-22T13:27:09.630Z,45.92
2022-10-22T13:37:12.061Z,49.22
2022-10-22T13:47:22.041Z,48.31
2022-10-22T13:57:24.517Z,48.20
2022-10-22T14:07:28.500Z,48.50
2022-10-22T14:17:31.262Z,51.67
2022-10-22T14:27:35.092Z,51.23
2022-10-22T14:37:37.484Z,51.24
2022-10-22T14:47:41.272Z,52.04
2022-10-22T14:57:44.290Z,52.37
2022-10-22T15:07:48.354Z,52.24
2022-10-22T15:17:51.088Z,54.60
2022-10-22T15:27:58.514Z,53.90
2022-10-22T15:38:10.122Z,54.10
2022-10-22T15:48:15.540Z,55.51
2022-10-22T15:58:18.159Z,62.64
2022-10-22T16:08:22.079Z,66.11
2022-10-22T16:18:24.668Z,67.58
2022-10-22T16:28:28.617Z,70.08
2022-10-22T16:38:31.331Z,71.42
2022-10-22T16:48:35.170Z,70.09
2022-10-22T16:58:37.762Z,70.96
2022-10-22T17:08:42.033Z,70.84
2022-10-22T17:28:54.877Z,71.90
2022-10-22T17:38:58.397Z,71.78
2022-10-22T17:49:03.432Z,72.32
2022-10-22T17:59:05.825Z,72.74
2022-10-22T18:09:11.561Z,72.63
2022-10-22T18:19:16.547Z,73.83
2022-10-22T18:29:20.732Z,72.34
2022-10-22T18:39:23.143Z,70.91
2022-10-22T18:49:26.905Z,74.58
2022-10-22T18:59:29.609Z,75.89
2022-10-22T19:09:33.836Z,77.79
2022-10-22T19:19:36.269Z,79.59
2022-10-22T19:29:40.080Z,78.22
2022-10-22T19:39:42.574Z,80.28
2022-10-22T19:49:46.389Z,79.90
2022-10-22T19:59:48.938Z,80.43
2022-10-22T20:09:52.677Z,81.12
2022-10-22T20:19:56.681Z,82.67
2022-10-22T20:30:00.436Z,82.50
2022-10-22T20:40:03.106Z,83.54
2022-10-22T20:50:07.361Z,82.64
2022-10-22T21:00:10.295Z,83.52
2022-10-22T21:10:14.081Z,84.33
2022-10-22T21:20:17.925Z,84.81
2022-10-22T21:30:23.559Z,84.19
2022-10-22T21:40:27.501Z,85.38
2022-10-22T21:50:31.551Z,85.94
2022-10-22T22:00:34.090Z,86.89
2022-10-22T22:10:38.002Z,86.98
2022-10-22T22:20:40.443Z,87.12
2022-10-22T22:30:44.242Z,86.80
2022-10-22T22:40:46.679Z,85.90
2022-10-22T22:50:50.445Z,84.95
2022-10-22T23:00:52.956Z,84.72
2022-10-22T23:11:01.781Z,85.81
2022-10-22T23:21:05.181Z,85.55
2022-10-22T23:31:11.538Z,84.88
2022-10-22T23:41:13.988Z,84.63
2022-10-22T23:51:18.252Z,85.16
